Terminal Aerodrome Forecast
Issued by NWS Grand Forks, ND

Home | Current Version | Previous Version | Graphics & Text | Print | Product List | Glossary On
Versions: 1 2 3 4 5 6 7 8 9 10 11 12 13 14 15 16
269
FTUS43 KFGF 241625 AAA
TAFFAR
TAF AMD
KFAR 241625Z 2416/2512 28014G22KT P6SM SKC
     FM241800 28016G24KT P6SM BKN035
     FM250100 28010KT P6SM SCT050
     FM251100 28008KT P6SM SCT050=

USA.gov is the U.S. government's official web portal to all federal, state and local government web resources and services.